• Join FlightAware (Why Join?)
  • Login
  • US Flag 
01:03AM EDT


 

Airport Tracker/Info


-or-


 

Live Flight TrackerFlight Track Log ✈ UAL3744 ✈ 25-Apr-2013 ✈ KCHS - KIAD

Flight Track Log - Related Links

Times and Time Zones

All times are in EDT time to prevent confusion due to time zone crossing. See the UAL3744 flight status page for this flight to view local times or setup timezone preferences in your user account.

Time Position Orientation Groundspeed Altitude Reporting Facility
EDT Latitude Longitude Course Direction KTS MPH feet Rate Location/Type
05:34AM 32.9272 -80.0267 13° North 179 206 1,500  Level Jacksonville Center
05:35AM 32.9814 -80.0125 12° North 213 245 4,300 2,580 Climbing Jacksonville Center
05:36AM 33.0539 -79.9906 14° North 233 268 6,700 2,580 Climbing Jacksonville Center
05:37AM 33.1306 -79.9681 14° North 259 298 9,500 2,400 Climbing Jacksonville Center
05:38AM 33.3508 -79.8913 23° Northeast  Level FlightAware Approximate
05:38AM 33.2197 -79.9428 13° North 296 341 11,600  Level Jacksonville Center
05:39AM 33.4689 -79.8613 13° North  Level FlightAware Approximate
05:39AM 33.3172 -79.9147 14° North 332 382 14,000  Level Jacksonville Center
05:40AM 33.5867 -79.8277 13° North  Level FlightAware Approximate
05:40AM 33.4083 -79.8894 13° North 362 417 16,600  Level Jacksonville Center
05:41AM 33.5119 -79.8608 13° North 374 430 18,300 1,740 Climbing Jacksonville Center
05:42AM 33.6197 -79.8297 14° North 380 437 20,100 1,800 Climbing Jacksonville Center
05:43AM 33.7317 -79.8008 12° North 396 456 21,900 1,680 Climbing Jacksonville Center
05:44AM 33.8478 -79.7669 14° North 406 467 23,500 1,800 Climbing Jacksonville Center
05:45AM 33.9639 -79.7328 14° North 419 482 25,500 1,560 Climbing Jacksonville Center
05:46AM 34.0819 -79.7008 13° North 424 488 26,700 1,200 Climbing Jacksonville Center
05:47AM 34.2019 -79.6664 13° North 430 495 28,000 720 Climbing Jacksonville Center
05:50AM 34.4761 -79.5322 22° Northeast 468 539 29,000 300 Climbing Washington Center
05:51AM 34.6014 -79.4675 23° Northeast 479 551 29,000  Level Washington Center
05:52AM 34.7247 -79.3975 25° Northeast 484 557 29,000  Level Washington Center
05:53AM 34.8497 -79.3350 22° Northeast 484 557 29,000  Level Washington Center
05:54AM 34.9750 -79.2700 23° Northeast 484 557 29,000  Level Washington Center
05:55AM 35.0981 -79.2019 24° Northeast 484 557 29,000  Level Washington Center
05:56AM 35.2231 -79.1389 22° Northeast 484 557 29,000  Level Washington Center
05:57AM 35.3503 -79.0706 24° Northeast 484 557 29,000  Level Washington Center
05:58AM 35.4772 -79.0022 24° Northeast 484 557 29,000  Level Washington Center
05:59AM 35.6044 -78.9336 24° Northeast 489 563 29,000  Level Washington Center
06:00AM 35.7317 -78.8619 25° Northeast 489 563 29,000  Level Washington Center
06:01AM 35.8608 -78.7931 23° Northeast 489 563 29,000  Level Washington Center
06:02AM 35.9667 -78.7358 24° Northeast 489 563 29,000  Level Washington Center
06:03AM 36.1064 -78.6564 25° Northeast 489 563 29,000  Level Washington Center
06:04AM 36.2378 -78.5819 25° Northeast 494 568 29,000  Level Washington Center
06:05AM 36.3647 -78.5092 25° Northeast 499 574 29,000 -120 Level Washington Center
06:06AM 36.4958 -78.4342 25° Northeast 505 581 28,800 -780 Descending Washington Center
06:07AM 36.6247 -78.3611 24° Northeast 505 581 27,500 -1,440 Descending Washington Center
06:08AM 36.7517 -78.2828 26° Northeast 505 581 26,000 -1,500 Descending Washington Center
06:09AM 36.8828 -78.2094 24° Northeast 505 581 24,600 -1,380 Descending Washington Center
06:10AM 37.0117 -78.1331 25° Northeast 510 587 23,300 -1,320 Descending Washington Center
06:11AM 37.1383 -78.0592 25° Northeast 505 581 22,000 -660 Descending Washington Center
06:12AM 37.2628 -77.9875 25° Northeast 495 570 22,000  Level Washington Center
06:13AM 37.3894 -77.9103 26° Northeast 495 570 22,000  Level Washington Center
06:14AM 37.5183 -77.8358 25° Northeast 495 570 22,000 -660 Level Washington Center
06:15AM 37.6447 -77.7633 24° Northeast 495 570 20,700 -1,980 Descending Washington Center
06:16AM 37.7650 -77.6906 26° Northeast 483 556 18,100 -2,580 Descending Washington Center
06:17AM 37.8828 -77.6228 24° Northeast 471 542 15,600 -2,700 Descending Washington Center
06:18AM 37.9944 -77.5547 26° Northeast 457 526 12,700 -2,760 Descending Washington Center
06:19AM 38.1081 -77.4944 23° Northeast 420 483 10,100 -1,380 Descending Washington Center
06:20AM 38.1922 -77.4436 25° Northeast 373 429 10,000 -480 Descending Washington Center
06:21AM 38.2594 -77.4217 14° North 308 354 9,200 -1,200 Descending Washington Center
06:22AM 38.3364 -77.4261 357° North 279 321 7,600 -1,500 Descending Washington Center
06:23AM 38.4156 -77.4306 357° North 274 315 6,300 -1,080 Descending Washington Center
06:24AM 38.4864 -77.4325 359° North 262 302 5,500 -840 Descending Washington Center
06:25AM 38.5553 -77.4369 357° North 257 296 4,700 -900 Descending Washington Center
06:26AM 38.6178 -77.4383 359° North 237 273 3,700 -1,080 Descending Washington Center
06:26AM 38.6667 -77.4333 North 224 258 3,100 -480 Descending Potomac TRACON
06:27AM 38.7167 -77.4333 360° North 225 259 3,000 -480 Descending Potomac TRACON
06:28AM 38.7833 -77.4333 360° North 221 254 2,300 -600 Descending Potomac TRACON
06:29AM 38.8333 -77.4333 360° North 204 235 1,900 -420 Descending Potomac TRACON